Pearl Beach, Michigan
Current Conditions -  °F | °C
As of 3:58 AM on Wednesday 22 Oct 2014 (Local Time) from KMTC Reporting Station
Overcast Overcast  
Wind Chill: 40°   Ceiling: 2000
Heat Index: 46°   Visibility: 10mi
Dew Point: 40°   Wind: 13mph
Humidity: 81%   Direction: 10°N
Pressure: 30.2"   Gusts: NA
Location:  42.6418°N, 82.5677°W
Report Text: KMTC 220758Z AUTO 01011KT 10SM OVC020 08/05 A3020 RMK AO2 SLP233 T00770047 $
Loading
Personal Weather Stations






























Interactive Weather Map
Tropical Storm Tracking
New forecast layout! Learn more

10-Day Weather Forecast

Advertisements
Track Severe Weather on mobile